sensor_id;sensor_type;location;lat;lon;timestamp;temperature;humidity
4985;DHT22;2509;49.902;8.600;2022-12-07T00:01:05;3.80;99.90
4985;DHT22;2509;49.902;8.600;2022-12-07T00:04:09;3.80;99.90
4985;DHT22;2509;49.902;8.600;2022-12-07T00:07:11;3.70;99.90
4985;DHT22;2509;49.902;8.600;2022-12-07T00:10:14;3.70;99.90
4985;DHT22;2509;49.902;8.600;2022-12-07T00:13:16;3.70;99.90
4985;DHT22;2509;49.902;8.600;2022-12-07T00:16:20;3.70;99.90
4985;DHT22;2509;49.902;8.600;2022-12-07T00:19:22;3.70;99.90
4985;DHT22;2509;49.902;8.600;2022-12-07T00:22:23;3.70;99.90
4985;DHT22;2509;49.902;8.600;2022-12-07T00:25:27;3.70;99.90
4985;DHT22;2509;49.902;8.600;2022-12-07T00:28:28;3.70;99.90
4985;DHT22;2509;49.902;8.600;2022-12-07T00:31:32;3.70;99.90
4985;DHT22;2509;49.902;8.600;2022-12-07T00:34:35;3.70;99.90
4985;DHT22;2509;49.902;8.600;2022-12-07T00:37:37;3.70;99.90
4985;DHT22;2509;49.902;8.600;2022-12-07T00:40:40;3.70;99.90
4985;DHT22;2509;49.902;8.600;2022-12-07T00:43:43;3.70;99.90
4985;DHT22;2509;49.902;8.600;2022-12-07T00:46:45;3.70;99.90
4985;DHT22;2509;49.902;8.600;2022-12-07T00:49:47;3.70;99.90
4985;DHT22;2509;49.902;8.600;2022-12-07T00:52:48;3.70;99.90
4985;DHT22;2509;49.902;8.600;2022-12-07T00:55:52;3.70;99.90
4985;DHT22;2509;49.902;8.600;2022-12-07T00:58:55;3.70;99.90
4985;DHT22;2509;49.902;8.600;2022-12-07T01:01:57;3.70;99.90
4985;DHT22;2509;49.902;8.600;2022-12-07T01:04:58;3.70;99.90
4985;DHT22;2509;49.902;8.600;2022-12-07T01:08:00;3.60;99.90
4985;DHT22;2509;49.902;8.600;2022-12-07T01:11:05;3.60;99.90
4985;DHT22;2509;49.902;8.600;2022-12-07T01:14:09;3.60;99.90
4985;DHT22;2509;49.902;8.600;2022-12-07T01:17:10;3.60;99.90
4985;DHT22;2509;49.902;8.600;2022-12-07T01:20:13;3.60;99.90
4985;DHT22;2509;49.902;8.600;2022-12-07T01:23:16;3.60;99.90
4985;DHT22;2509;49.902;8.600;2022-12-07T01:26:21;3.60;99.90
4985;DHT22;2509;49.902;8.600;2022-12-07T01:29:23;3.60;99.90
4985;DHT22;2509;49.902;8.600;2022-12-07T01:32:25;3.60;99.90
4985;DHT22;2509;49.902;8.600;2022-12-07T01:35:27;3.60;99.90
4985;DHT22;2509;49.902;8.600;2022-12-07T01:38:29;3.60;99.90
4985;DHT22;2509;49.902;8.600;2022-12-07T01:41:35;3.60;99.90
4985;DHT22;2509;49.902;8.600;2022-12-07T01:48:17;3.60;99.90
4985;DHT22;2509;49.902;8.600;2022-12-07T01:51:21;3.60;99.90
4985;DHT22;2509;49.902;8.600;2022-12-07T01:54:23;3.50;99.90
4985;DHT22;2509;49.902;8.600;2022-12-07T01:57:26;3.50;99.90
4985;DHT22;2509;49.902;8.600;2022-12-07T02:00:29;3.50;99.90
4985;DHT22;2509;49.902;8.600;2022-12-07T02:03:34;3.50;99.90
4985;DHT22;2509;49.902;8.600;2022-12-07T02:06:37;3.50;99.90
4985;DHT22;2509;49.902;8.600;2022-12-07T02:09:39;3.50;99.90
4985;DHT22;2509;49.902;8.600;2022-12-07T02:12:43;3.50;99.90
4985;DHT22;2509;49.902;8.600;2022-12-07T02:16:06;3.50;99.90
4985;DHT22;2509;49.902;8.600;2022-12-07T02:23:04;3.50;99.90
4985;DHT22;2509;49.902;8.600;2022-12-07T02:29:55;3.50;99.90
4985;DHT22;2509;49.902;8.600;2022-12-07T02:33:02;3.50;99.90
4985;DHT22;2509;49.902;8.600;2022-12-07T02:36:10;3.50;99.90
4985;DHT22;2509;49.902;8.600;2022-12-07T02:39:20;3.50;99.90
4985;DHT22;2509;49.902;8.600;2022-12-07T02:42:28;3.50;99.90
4985;DHT22;2509;49.902;8.600;2022-12-07T02:45:34;3.50;99.90
4985;DHT22;2509;49.902;8.600;2022-12-07T02:48:38;3.60;99.90
4985;DHT22;2509;49.902;8.600;2022-12-07T02:51:42;3.60;99.90
4985;DHT22;2509;49.902;8.600;2022-12-07T02:54:44;3.60;99.90
4985;DHT22;2509;49.902;8.600;2022-12-07T02:57:55;3.60;99.90
4985;DHT22;2509;49.902;8.600;2022-12-07T03:01:08;3.60;99.90
4985;DHT22;2509;49.902;8.600;2022-12-07T03:04:24;3.60;99.90
4985;DHT22;2509;49.902;8.600;2022-12-07T03:07:36;3.60;99.90
4985;DHT22;2509;49.902;8.600;2022-12-07T03:10:46;3.60;99.90
4985;DHT22;2509;49.902;8.600;2022-12-07T03:13:55;3.60;99.90
4985;DHT22;2509;49.902;8.600;2022-12-07T03:17:05;3.60;99.90
4985;DHT22;2509;49.902;8.600;2022-12-07T03:20:12;3.60;99.90
4985;DHT22;2509;49.902;8.600;2022-12-07T03:23:16;3.60;99.90
4985;DHT22;2509;49.902;8.600;2022-12-07T03:26:21;3.60;99.90
4985;DHT22;2509;49.902;8.600;2022-12-07T03:29:26;3.60;99.90
4985;DHT22;2509;49.902;8.600;2022-12-07T03:32:33;3.60;99.90
4985;DHT22;2509;49.902;8.600;2022-12-07T03:35:39;3.60;99.90
4985;DHT22;2509;49.902;8.600;2022-12-07T03:38:45;3.60;99.90
4985;DHT22;2509;49.902;8.600;2022-12-07T03:41:48;3.60;99.90
4985;DHT22;2509;49.902;8.600;2022-12-07T03:44:50;3.60;99.90
4985;DHT22;2509;49.902;8.600;2022-12-07T03:47:59;3.60;99.90
4985;DHT22;2509;49.902;8.600;2022-12-07T03:51:10;3.60;99.90
4985;DHT22;2509;49.902;8.600;2022-12-07T03:54:19;3.60;99.90
4985;DHT22;2509;49.902;8.600;2022-12-07T03:57:23;3.60;99.90
4985;DHT22;2509;49.902;8.600;2022-12-07T04:00:26;3.60;99.90
4985;DHT22;2509;49.902;8.600;2022-12-07T04:03:29;3.60;99.90
4985;DHT22;2509;49.902;8.600;2022-12-07T04:06:31;3.60;99.90
4985;DHT22;2509;49.902;8.600;2022-12-07T04:09:33;3.60;99.90
4985;DHT22;2509;49.902;8.600;2022-12-07T04:12:35;3.60;99.90
4985;DHT22;2509;49.902;8.600;2022-12-07T04:15:36;3.60;99.90
4985;DHT22;2509;49.902;8.600;2022-12-07T04:18:39;3.60;99.90
4985;DHT22;2509;49.902;8.600;2022-12-07T04:21:41;3.60;99.90
4985;DHT22;2509;49.902;8.600;2022-12-07T04:24:43;3.60;99.90
4985;DHT22;2509;49.902;8.600;2022-12-07T04:27:45;3.60;99.90
4985;DHT22;2509;49.902;8.600;2022-12-07T04:30:46;3.60;99.90
4985;DHT22;2509;49.902;8.600;2022-12-07T04:33:50;3.60;99.90
4985;DHT22;2509;49.902;8.600;2022-12-07T04:36:51;3.60;99.90
4985;DHT22;2509;49.902;8.600;2022-12-07T04:39:53;3.60;99.90
4985;DHT22;2509;49.902;8.600;2022-12-07T04:42:55;3.60;99.90
4985;DHT22;2509;49.902;8.600;2022-12-07T04:45:57;3.60;99.90
4985;DHT22;2509;49.902;8.600;2022-12-07T04:49:00;3.60;99.90
4985;DHT22;2509;49.902;8.600;2022-12-07T04:52:02;3.70;99.90
4985;DHT22;2509;49.902;8.600;2022-12-07T04:55:04;3.70;99.90
4985;DHT22;2509;49.902;8.600;2022-12-07T04:58:06;3.60;99.90
4985;DHT22;2509;49.902;8.600;2022-12-07T05:01:09;3.70;99.90
4985;DHT22;2509;49.902;8.600;2022-12-07T05:04:12;3.70;99.90
4985;DHT22;2509;49.902;8.600;2022-12-07T05:07:14;3.60;99.90
4985;DHT22;2509;49.902;8.600;2022-12-07T05:10:16;3.70;99.90
4985;DHT22;2509;49.902;8.600;2022-12-07T05:13:18;3.70;99.90
4985;DHT22;2509;49.902;8.600;2022-12-07T05:16:19;3.70;99.90
4985;DHT22;2509;49.902;8.600;2022-12-07T05:19:22;3.70;99.90
4985;DHT22;2509;49.902;8.600;2022-12-07T05:22:24;3.80;99.90
4985;DHT22;2509;49.902;8.600;2022-12-07T05:25:28;3.70;99.90
4985;DHT22;2509;49.902;8.600;2022-12-07T05:28:30;3.70;99.90
4985;DHT22;2509;49.902;8.600;2022-12-07T05:31:32;3.70;99.90
4985;DHT22;2509;49.902;8.600;2022-12-07T05:34:35;3.70;99.90
4985;DHT22;2509;49.902;8.600;2022-12-07T05:37:37;3.70;99.90
4985;DHT22;2509;49.902;8.600;2022-12-07T05:40:39;3.80;99.90
4985;DHT22;2509;49.902;8.600;2022-12-07T05:43:41;3.70;99.90
4985;DHT22;2509;49.902;8.600;2022-12-07T05:46:43;3.80;99.90
4985;DHT22;2509;49.902;8.600;2022-12-07T05:49:46;3.80;99.90
4985;DHT22;2509;49.902;8.600;2022-12-07T05:52:48;3.70;99.90
4985;DHT22;2509;49.902;8.600;2022-12-07T05:55:49;3.80;99.90
4985;DHT22;2509;49.902;8.600;2022-12-07T05:58:53;3.80;99.90
4985;DHT22;2509;49.902;8.600;2022-12-07T06:02:18;3.80;99.90
4985;DHT22;2509;49.902;8.600;2022-12-07T06:05:21;3.80;99.90
4985;DHT22;2509;49.902;8.600;2022-12-07T06:08:23;3.80;99.90
4985;DHT22;2509;49.902;8.600;2022-12-07T06:11:24;3.80;99.90
4985;DHT22;2509;49.902;8.600;2022-12-07T06:14:43;3.80;99.90
4985;DHT22;2509;49.902;8.600;2022-12-07T06:17:45;3.80;99.90
4985;DHT22;2509;49.902;8.600;2022-12-07T06:20:50;3.80;99.90
4985;DHT22;2509;49.902;8.600;2022-12-07T06:23:52;3.80;99.90
4985;DHT22;2509;49.902;8.600;2022-12-07T06:26:54;3.80;99.90
4985;DHT22;2509;49.902;8.600;2022-12-07T06:29:56;3.80;99.90
4985;DHT22;2509;49.902;8.600;2022-12-07T06:32:57;3.80;99.90
4985;DHT22;2509;49.902;8.600;2022-12-07T06:36:00;3.80;99.90
4985;DHT22;2509;49.902;8.600;2022-12-07T06:39:03;3.90;99.90
4985;DHT22;2509;49.902;8.600;2022-12-07T06:42:05;3.90;99.90
4985;DHT22;2509;49.902;8.600;2022-12-07T06:45:08;3.90;99.90
4985;DHT22;2509;49.902;8.600;2022-12-07T06:48:09;3.90;99.90
4985;DHT22;2509;49.902;8.600;2022-12-07T06:51:12;3.90;99.90
4985;DHT22;2509;49.902;8.600;2022-12-07T06:54:16;4.00;99.90
4985;DHT22;2509;49.902;8.600;2022-12-07T06:57:18;4.00;99.90
4985;DHT22;2509;49.902;8.600;2022-12-07T07:00:21;4.00;99.90
4985;DHT22;2509;49.902;8.600;2022-12-07T07:03:23;4.00;99.90
4985;DHT22;2509;49.902;8.600;2022-12-07T07:06:26;4.00;99.90
4985;DHT22;2509;49.902;8.600;2022-12-07T07:09:27;4.00;99.90
4985;DHT22;2509;49.902;8.600;2022-12-07T07:12:29;4.00;99.90
4985;DHT22;2509;49.902;8.600;2022-12-07T07:15:32;4.00;99.90
4985;DHT22;2509;49.902;8.600;2022-12-07T07:18:34;4.00;99.90
4985;DHT22;2509;49.902;8.600;2022-12-07T07:21:37;4.00;99.90
4985;DHT22;2509;49.902;8.600;2022-12-07T07:24:39;4.00;99.90
4985;DHT22;2509;49.902;8.600;2022-12-07T07:27:41;4.00;99.90
4985;DHT22;2509;49.902;8.600;2022-12-07T07:30:43;4.00;99.90
4985;DHT22;2509;49.902;8.600;2022-12-07T07:33:45;4.00;99.90
4985;DHT22;2509;49.902;8.600;2022-12-07T07:36:48;4.00;99.90
4985;DHT22;2509;49.902;8.600;2022-12-07T07:39:50;4.00;99.90
4985;DHT22;2509;49.902;8.600;2022-12-07T07:42:53;4.10;99.90
4985;DHT22;2509;49.902;8.600;2022-12-07T07:45:55;4.10;99.90
4985;DHT22;2509;49.902;8.600;2022-12-07T07:48:56;4.10;99.90
4985;DHT22;2509;49.902;8.600;2022-12-07T07:51:59;4.10;99.90
4985;DHT22;2509;49.902;8.600;2022-12-07T07:55:02;4.10;99.90
4985;DHT22;2509;49.902;8.600;2022-12-07T07:58:03;4.10;99.90
4985;DHT22;2509;49.902;8.600;2022-12-07T08:01:06;4.20;99.90
4985;DHT22;2509;49.902;8.600;2022-12-07T08:04:08;4.20;99.90
4985;DHT22;2509;49.902;8.600;2022-12-07T08:07:12;4.20;99.90
4985;DHT22;2509;49.902;8.600;2022-12-07T08:10:14;4.20;99.90
4985;DHT22;2509;49.902;8.600;2022-12-07T08:13:16;4.20;99.90
4985;DHT22;2509;49.902;8.600;2022-12-07T08:16:18;4.20;99.90
4985;DHT22;2509;49.902;8.600;2022-12-07T08:19:19;4.20;99.90
4985;DHT22;2509;49.902;8.600;2022-12-07T08:22:23;4.20;99.90
4985;DHT22;2509;49.902;8.600;2022-12-07T08:25:25;4.20;99.90
4985;DHT22;2509;49.902;8.600;2022-12-07T08:28:27;4.30;99.90
4985;DHT22;2509;49.902;8.600;2022-12-07T08:31:29;4.30;99.90
4985;DHT22;2509;49.902;8.600;2022-12-07T08:34:31;4.40;99.90
4985;DHT22;2509;49.902;8.600;2022-12-07T08:37:34;4.40;99.90
4985;DHT22;2509;49.902;8.600;2022-12-07T08:40:36;4.40;99.90
4985;DHT22;2509;49.902;8.600;2022-12-07T08:43:38;4.40;99.90
4985;DHT22;2509;49.902;8.600;2022-12-07T08:46:42;4.40;99.90
4985;DHT22;2509;49.902;8.600;2022-12-07T08:49:47;4.40;99.90
4985;DHT22;2509;49.902;8.600;2022-12-07T08:52:54;4.40;99.90
4985;DHT22;2509;49.902;8.600;2022-12-07T08:55:57;4.40;99.90
4985;DHT22;2509;49.902;8.600;2022-12-07T08:58:59;4.40;99.90
4985;DHT22;2509;49.902;8.600;2022-12-07T09:02:01;4.40;99.90
4985;DHT22;2509;49.902;8.600;2022-12-07T09:05:03;4.60;99.90
4985;DHT22;2509;49.902;8.600;2022-12-07T09:08:07;4.60;99.90
4985;DHT22;2509;49.902;8.600;2022-12-07T09:11:09;4.80;99.90
4985;DHT22;2509;49.902;8.600;2022-12-07T09:14:11;4.90;99.90
4985;DHT22;2509;49.902;8.600;2022-12-07T09:17:13;5.00;99.90
4985;DHT22;2509;49.902;8.600;2022-12-07T09:20:15;5.00;99.90
4985;DHT22;2509;49.902;8.600;2022-12-07T09:23:18;5.00;99.90
4985;DHT22;2509;49.902;8.600;2022-12-07T09:26:20;5.20;99.90
4985;DHT22;2509;49.902;8.600;2022-12-07T09:29:35;5.40;99.90
4985;DHT22;2509;49.902;8.600;2022-12-07T09:32:38;5.70;99.90
4985;DHT22;2509;49.902;8.600;2022-12-07T09:35:44;5.90;99.90
4985;DHT22;2509;49.902;8.600;2022-12-07T09:38:47;5.90;99.90
4985;DHT22;2509;49.902;8.600;2022-12-07T09:41:49;5.90;99.90
4985;DHT22;2509;49.902;8.600;2022-12-07T09:44:51;5.90;99.90
4985;DHT22;2509;49.902;8.600;2022-12-07T09:47:53;5.80;99.90
4985;DHT22;2509;49.902;8.600;2022-12-07T09:50:57;5.80;99.90
4985;DHT22;2509;49.902;8.600;2022-12-07T09:54:01;5.80;99.90
4985;DHT22;2509;49.902;8.600;2022-12-07T09:57:03;5.80;99.90
4985;DHT22;2509;49.902;8.600;2022-12-07T10:00:12;5.80;99.90
4985;DHT22;2509;49.902;8.600;2022-12-07T10:03:14;5.90;99.90
4985;DHT22;2509;49.902;8.600;2022-12-07T10:06:16;5.80;99.90
4985;DHT22;2509;49.902;8.600;2022-12-07T10:09:21;5.80;99.90
4985;DHT22;2509;49.902;8.600;2022-12-07T10:12:23;5.90;99.90
4985;DHT22;2509;49.902;8.600;2022-12-07T10:15:41;5.90;99.90
4985;DHT22;2509;49.902;8.600;2022-12-07T10:18:43;5.90;99.90
4985;DHT22;2509;49.902;8.600;2022-12-07T10:22:00;5.80;99.90
4985;DHT22;2509;49.902;8.600;2022-12-07T10:25:18;5.70;99.90
4985;DHT22;2509;49.902;8.600;2022-12-07T10:28:20;5.80;99.90
4985;DHT22;2509;49.902;8.600;2022-12-07T10:31:23;5.80;99.90
4985;DHT22;2509;49.902;8.600;2022-12-07T10:34:27;5.90;99.90
4985;DHT22;2509;49.902;8.600;2022-12-07T10:37:40;6.00;99.90
4985;DHT22;2509;49.902;8.600;2022-12-07T10:40:43;6.10;99.90
4985;DHT22;2509;49.902;8.600;2022-12-07T10:43:50;6.40;99.90
4985;DHT22;2509;49.902;8.600;2022-12-07T10:47:06;6.50;99.90
4985;DHT22;2509;49.902;8.600;2022-12-07T10:50:29;6.60;99.90
4985;DHT22;2509;49.902;8.600;2022-12-07T10:53:43;6.60;99.90
4985;DHT22;2509;49.902;8.600;2022-12-07T10:56:57;6.60;99.90
4985;DHT22;2509;49.902;8.600;2022-12-07T11:00:09;6.60;99.90
4985;DHT22;2509;49.902;8.600;2022-12-07T11:03:23;6.60;99.90
4985;DHT22;2509;49.902;8.600;2022-12-07T11:06:33;6.60;99.90
4985;DHT22;2509;49.902;8.600;2022-12-07T11:10:00;6.60;99.90
4985;DHT22;2509;49.902;8.600;2022-12-07T11:13:17;6.50;99.90
4985;DHT22;2509;49.902;8.600;2022-12-07T11:16:24;6.50;99.90
4985;DHT22;2509;49.902;8.600;2022-12-07T11:19:43;6.60;99.90
4985;DHT22;2509;49.902;8.600;2022-12-07T11:22:58;6.70;99.90
4985;DHT22;2509;49.902;8.600;2022-12-07T11:26:09;6.70;99.90
4985;DHT22;2509;49.902;8.600;2022-12-07T11:36:16;7.20;99.90
4985;DHT22;2509;49.902;8.600;2022-12-07T11:39:25;7.70;99.90
4985;DHT22;2509;49.902;8.600;2022-12-07T11:42:30;8.50;99.90
4985;DHT22;2509;49.902;8.600;2022-12-07T11:45:39;8.80;99.90
4985;DHT22;2509;49.902;8.600;2022-12-07T11:48:46;8.50;99.90
4985;DHT22;2509;49.902;8.600;2022-12-07T11:51:51;8.20;99.90
4985;DHT22;2509;49.902;8.600;2022-12-07T11:54:54;7.90;99.90
4985;DHT22;2509;49.902;8.600;2022-12-07T11:58:04;7.80;99.90
4985;DHT22;2509;49.902;8.600;2022-12-07T12:01:15;7.70;99.90
4985;DHT22;2509;49.902;8.600;2022-12-07T12:04:29;7.60;99.90
4985;DHT22;2509;49.902;8.600;2022-12-07T12:07:32;7.50;99.90
4985;DHT22;2509;49.902;8.600;2022-12-07T12:10:42;7.40;99.90
4985;DHT22;2509;49.902;8.600;2022-12-07T12:14:26;7.40;99.90
4985;DHT22;2509;49.902;8.600;2022-12-07T12:21:17;7.40;99.90
4985;DHT22;2509;49.902;8.600;2022-12-07T12:24:24;7.30;99.90
4985;DHT22;2509;49.902;8.600;2022-12-07T12:27:31;7.20;99.90
4985;DHT22;2509;49.902;8.600;2022-12-07T12:30:36;7.10;99.90
4985;DHT22;2509;49.902;8.600;2022-12-07T12:33:43;7.00;99.90
4985;DHT22;2509;49.902;8.600;2022-12-07T12:36:48;7.00;99.90
4985;DHT22;2509;49.902;8.600;2022-12-07T12:43:49;6.80;99.90
4985;DHT22;2509;49.902;8.600;2022-12-07T12:46:53;6.80;99.90
4985;DHT22;2509;49.902;8.600;2022-12-07T12:50:19;6.70;99.90
4985;DHT22;2509;49.902;8.600;2022-12-07T12:53:24;6.80;99.90
4985;DHT22;2509;49.902;8.600;2022-12-07T12:56:35;6.80;99.90
4985;DHT22;2509;49.902;8.600;2022-12-07T12:59:41;6.90;99.90
4985;DHT22;2509;49.902;8.600;2022-12-07T13:02:49;6.90;99.90
4985;DHT22;2509;49.902;8.600;2022-12-07T13:06:17;6.90;99.90
4985;DHT22;2509;49.902;8.600;2022-12-07T13:09:24;6.90;99.90
4985;DHT22;2509;49.902;8.600;2022-12-07T13:12:27;6.80;99.90
4985;DHT22;2509;49.902;8.600;2022-12-07T13:15:34;6.80;99.90
4985;DHT22;2509;49.902;8.600;2022-12-07T13:18:39;6.80;99.90
4985;DHT22;2509;49.902;8.600;2022-12-07T13:21:47;6.90;99.90
4985;DHT22;2509;49.902;8.600;2022-12-07T13:24:54;6.90;99.90
4985;DHT22;2509;49.902;8.600;2022-12-07T13:28:01;6.90;99.90
4985;DHT22;2509;49.902;8.600;2022-12-07T13:31:11;7.00;99.90
4985;DHT22;2509;49.902;8.600;2022-12-07T13:34:29;7.10;99.90
4985;DHT22;2509;49.902;8.600;2022-12-07T13:37:33;7.80;99.90
4985;DHT22;2509;49.902;8.600;2022-12-07T13:40:36;8.50;99.90
4985;DHT22;2509;49.902;8.600;2022-12-07T13:43:50;9.30;99.90
4985;DHT22;2509;49.902;8.600;2022-12-07T13:46:57;9.90;99.90
4985;DHT22;2509;49.902;8.600;2022-12-07T13:50:01;10.00;99.90
4985;DHT22;2509;49.902;8.600;2022-12-07T13:53:12;9.70;99.90
4985;DHT22;2509;49.902;8.600;2022-12-07T13:56:16;9.50;99.90
4985;DHT22;2509;49.902;8.600;2022-12-07T13:59:19;9.10;99.90
4985;DHT22;2509;49.902;8.600;2022-12-07T14:02:24;8.80;99.90
4985;DHT22;2509;49.902;8.600;2022-12-07T14:05:28;8.50;99.90
4985;DHT22;2509;49.902;8.600;2022-12-07T14:08:30;8.00;99.90
4985;DHT22;2509;49.902;8.600;2022-12-07T14:11:33;7.90;99.90
4985;DHT22;2509;49.902;8.600;2022-12-07T14:14:36;7.80;99.90
4985;DHT22;2509;49.902;8.600;2022-12-07T14:17:50;7.80;99.90
4985;DHT22;2509;49.902;8.600;2022-12-07T14:21:02;7.60;99.90
4985;DHT22;2509;49.902;8.600;2022-12-07T14:24:15;7.50;99.90
4985;DHT22;2509;49.902;8.600;2022-12-07T14:27:21;7.30;99.90
4985;DHT22;2509;49.902;8.600;2022-12-07T14:30:26;7.30;99.90
4985;DHT22;2509;49.902;8.600;2022-12-07T14:33:28;7.20;99.90
4985;DHT22;2509;49.902;8.600;2022-12-07T14:36:30;7.20;99.90
4985;DHT22;2509;49.902;8.600;2022-12-07T14:39:31;7.10;99.90
4985;DHT22;2509;49.902;8.600;2022-12-07T14:42:35;7.10;99.90
4985;DHT22;2509;49.902;8.600;2022-12-07T14:45:37;7.00;99.90
4985;DHT22;2509;49.902;8.600;2022-12-07T14:48:40;6.90;99.90
4985;DHT22;2509;49.902;8.600;2022-12-07T14:51:42;6.80;99.90
4985;DHT22;2509;49.902;8.600;2022-12-07T14:54:45;6.70;99.90
4985;DHT22;2509;49.902;8.600;2022-12-07T14:57:48;6.70;99.90
4985;DHT22;2509;49.902;8.600;2022-12-07T15:00:50;6.70;99.90
4985;DHT22;2509;49.902;8.600;2022-12-07T15:03:52;6.60;99.90
4985;DHT22;2509;49.902;8.600;2022-12-07T15:06:57;6.60;99.90
4985;DHT22;2509;49.902;8.600;2022-12-07T15:09:59;6.50;99.90
4985;DHT22;2509;49.902;8.600;2022-12-07T15:13:03;6.50;99.90
4985;DHT22;2509;49.902;8.600;2022-12-07T15:16:19;6.50;99.90
4985;DHT22;2509;49.902;8.600;2022-12-07T15:19:23;6.50;99.90
4985;DHT22;2509;49.902;8.600;2022-12-07T15:22:26;6.40;99.90
4985;DHT22;2509;49.902;8.600;2022-12-07T15:25:27;6.30;99.90
4985;DHT22;2509;49.902;8.600;2022-12-07T15:28:31;6.20;99.90
4985;DHT22;2509;49.902;8.600;2022-12-07T15:31:33;6.00;99.90
4985;DHT22;2509;49.902;8.600;2022-12-07T15:34:35;5.80;99.90
4985;DHT22;2509;49.902;8.600;2022-12-07T15:37:37;5.70;99.90
4985;DHT22;2509;49.902;8.600;2022-12-07T15:40:39;5.70;99.90
4985;DHT22;2509;49.902;8.600;2022-12-07T15:44:11;5.70;99.90
4985;DHT22;2509;49.902;8.600;2022-12-07T15:51:23;5.70;99.90
4985;DHT22;2509;49.902;8.600;2022-12-07T15:54:42;5.60;99.90
4985;DHT22;2509;49.902;8.600;2022-12-07T15:57:44;5.60;99.90
4985;DHT22;2509;49.902;8.600;2022-12-07T16:00:48;5.50;99.90
4985;DHT22;2509;49.902;8.600;2022-12-07T16:03:49;5.50;99.90
4985;DHT22;2509;49.902;8.600;2022-12-07T16:06:51;5.50;99.90
4985;DHT22;2509;49.902;8.600;2022-12-07T16:09:56;5.50;99.90
4985;DHT22;2509;49.902;8.600;2022-12-07T16:13:01;5.50;99.90
4985;DHT22;2509;49.902;8.600;2022-12-07T16:20:15;5.40;99.90
4985;DHT22;2509;49.902;8.600;2022-12-07T16:23:41;5.40;99.90
4985;DHT22;2509;49.902;8.600;2022-12-07T16:27:11;5.20;99.90
4985;DHT22;2509;49.902;8.600;2022-12-07T16:30:35;5.20;99.90
4985;DHT22;2509;49.902;8.600;2022-12-07T16:33:56;5.10;99.90
4985;DHT22;2509;49.902;8.600;2022-12-07T16:36:59;5.00;99.90
4985;DHT22;2509;49.902;8.600;2022-12-07T16:40:01;5.00;99.90
4985;DHT22;2509;49.902;8.600;2022-12-07T16:43:03;5.00;99.90
4985;DHT22;2509;49.902;8.600;2022-12-07T16:46:09;5.00;99.90
4985;DHT22;2509;49.902;8.600;2022-12-07T16:49:12;5.00;99.90
4985;DHT22;2509;49.902;8.600;2022-12-07T16:52:21;5.10;99.90
4985;DHT22;2509;49.902;8.600;2022-12-07T16:55:27;5.00;99.90
4985;DHT22;2509;49.902;8.600;2022-12-07T16:58:39;5.00;99.90
4985;DHT22;2509;49.902;8.600;2022-12-07T17:01:42;5.00;99.90
4985;DHT22;2509;49.902;8.600;2022-12-07T17:04:44;5.00;99.90
4985;DHT22;2509;49.902;8.600;2022-12-07T17:08:06;5.00;99.90
4985;DHT22;2509;49.902;8.600;2022-12-07T17:11:24;5.00;99.90
4985;DHT22;2509;49.902;8.600;2022-12-07T17:14:27;5.00;99.90
4985;DHT22;2509;49.902;8.600;2022-12-07T17:17:51;4.90;99.90
4985;DHT22;2509;49.902;8.600;2022-12-07T17:20:53;4.90;99.90
4985;DHT22;2509;49.902;8.600;2022-12-07T17:23:58;4.90;99.90
4985;DHT22;2509;49.902;8.600;2022-12-07T17:26:59;4.90;99.90
4985;DHT22;2509;49.902;8.600;2022-12-07T17:30:02;4.80;99.90
4985;DHT22;2509;49.902;8.600;2022-12-07T17:33:04;4.80;99.90
4985;DHT22;2509;49.902;8.600;2022-12-07T17:36:10;4.80;99.90
4985;DHT22;2509;49.902;8.600;2022-12-07T17:39:15;4.80;99.90
4985;DHT22;2509;49.902;8.600;2022-12-07T17:42:17;4.80;99.90
4985;DHT22;2509;49.902;8.600;2022-12-07T17:45:42;4.80;99.90
4985;DHT22;2509;49.902;8.600;2022-12-07T17:48:44;4.70;99.90
4985;DHT22;2509;49.902;8.600;2022-12-07T17:51:46;4.70;99.90
4985;DHT22;2509;49.902;8.600;2022-12-07T17:55:07;4.70;99.90
4985;DHT22;2509;49.902;8.600;2022-12-07T17:58:09;4.70;99.90
4985;DHT22;2509;49.902;8.600;2022-12-07T18:01:11;4.70;99.90
4985;DHT22;2509;49.902;8.600;2022-12-07T18:04:13;4.70;99.90
4985;DHT22;2509;49.902;8.600;2022-12-07T18:07:15;4.70;99.90
4985;DHT22;2509;49.902;8.600;2022-12-07T18:10:18;4.70;99.90
4985;DHT22;2509;49.902;8.600;2022-12-07T18:13:20;4.70;99.90
4985;DHT22;2509;49.902;8.600;2022-12-07T18:16:37;4.70;99.90
4985;DHT22;2509;49.902;8.600;2022-12-07T18:19:39;4.60;99.90
4985;DHT22;2509;49.902;8.600;2022-12-07T18:22:41;4.60;99.90
4985;DHT22;2509;49.902;8.600;2022-12-07T18:25:47;4.60;99.90
4985;DHT22;2509;49.902;8.600;2022-12-07T18:28:50;4.60;99.90
4985;DHT22;2509;49.902;8.600;2022-12-07T18:31:52;4.60;99.90
4985;DHT22;2509;49.902;8.600;2022-12-07T18:34:53;4.60;99.90
4985;DHT22;2509;49.902;8.600;2022-12-07T18:37:55;4.50;99.90
4985;DHT22;2509;49.902;8.600;2022-12-07T18:40:59;4.50;99.90
4985;DHT22;2509;49.902;8.600;2022-12-07T18:44:03;4.50;99.90
4985;DHT22;2509;49.902;8.600;2022-12-07T18:47:05;4.50;99.90
4985;DHT22;2509;49.902;8.600;2022-12-07T18:50:08;4.50;99.90
4985;DHT22;2509;49.902;8.600;2022-12-07T18:53:10;4.50;99.90
4985;DHT22;2509;49.902;8.600;2022-12-07T18:56:15;4.50;99.90
4985;DHT22;2509;49.902;8.600;2022-12-07T18:59:17;4.50;99.90
4985;DHT22;2509;49.902;8.600;2022-12-07T19:02:36;4.50;99.90
4985;DHT22;2509;49.902;8.600;2022-12-07T19:05:38;4.40;99.90
4985;DHT22;2509;49.902;8.600;2022-12-07T19:08:40;4.40;99.90
4985;DHT22;2509;49.902;8.600;2022-12-07T19:11:43;4.40;99.90
4985;DHT22;2509;49.902;8.600;2022-12-07T19:14:51;4.40;99.90
4985;DHT22;2509;49.902;8.600;2022-12-07T19:17:54;4.30;99.90
4985;DHT22;2509;49.902;8.600;2022-12-07T19:20:56;4.30;99.90
4985;DHT22;2509;49.902;8.600;2022-12-07T19:23:57;4.30;99.90
4985;DHT22;2509;49.902;8.600;2022-12-07T19:27:02;4.30;99.90
4985;DHT22;2509;49.902;8.600;2022-12-07T19:30:05;4.30;99.90
4985;DHT22;2509;49.902;8.600;2022-12-07T19:33:23;4.30;99.90
4985;DHT22;2509;49.902;8.600;2022-12-07T19:36:47;4.20;99.90
4985;DHT22;2509;49.902;8.600;2022-12-07T19:44:59;4.20;99.90
4985;DHT22;2509;49.902;8.600;2022-12-07T19:47:56;4.20;99.90
4985;DHT22;2509;49.902;8.600;2022-12-07T19:51:07;4.20;99.90
4985;DHT22;2509;49.902;8.600;2022-12-07T19:54:39;4.20;99.90
4985;DHT22;2509;49.902;8.600;2022-12-07T19:58:10;4.10;99.90
4985;DHT22;2509;49.902;8.600;2022-12-07T20:01:56;4.10;99.90
4985;DHT22;2509;49.902;8.600;2022-12-07T20:05:31;4.10;99.90
4985;DHT22;2509;49.902;8.600;2022-12-07T20:12:26;4.10;99.90
4985;DHT22;2509;49.902;8.600;2022-12-07T20:16:21;4.10;99.90
4985;DHT22;2509;49.902;8.600;2022-12-07T20:23:26;4.10;99.90
4985;DHT22;2509;49.902;8.600;2022-12-07T20:26:29;4.10;99.90
4985;DHT22;2509;49.902;8.600;2022-12-07T20:29:30;4.10;99.90
4985;DHT22;2509;49.902;8.600;2022-12-07T20:32:32;4.10;99.90
4985;DHT22;2509;49.902;8.600;2022-12-07T20:35:34;4.10;99.90
4985;DHT22;2509;49.902;8.600;2022-12-07T20:38:38;4.10;99.90
4985;DHT22;2509;49.902;8.600;2022-12-07T20:41:40;4.10;99.90
4985;DHT22;2509;49.902;8.600;2022-12-07T20:44:59;4.10;99.90
4985;DHT22;2509;49.902;8.600;2022-12-07T20:48:02;4.00;99.90
4985;DHT22;2509;49.902;8.600;2022-12-07T20:51:05;4.00;99.90
4985;DHT22;2509;49.902;8.600;2022-12-07T20:54:08;4.00;99.90
4985;DHT22;2509;49.902;8.600;2022-12-07T20:57:10;4.00;99.90
4985;DHT22;2509;49.902;8.600;2022-12-07T21:00:12;4.00;99.90
4985;DHT22;2509;49.902;8.600;2022-12-07T21:03:14;4.00;99.90
4985;DHT22;2509;49.902;8.600;2022-12-07T21:06:17;3.90;99.90
4985;DHT22;2509;49.902;8.600;2022-12-07T21:09:20;4.00;99.90
4985;DHT22;2509;49.902;8.600;2022-12-07T21:12:27;4.00;99.90
4985;DHT22;2509;49.902;8.600;2022-12-07T21:15:29;4.00;99.90
4985;DHT22;2509;49.902;8.600;2022-12-07T21:18:30;3.90;99.90